createdAt,value
2019-01-18T00:02:02.555Z,0.70
2019-01-18T00:04:31.820Z,0.60
2019-01-18T00:07:00.524Z,0.60
2019-01-18T00:09:30.725Z,0.50
2019-01-18T00:12:03.990Z,0.50
2019-01-18T00:14:33.043Z,0.40
2019-01-18T00:17:03.823Z,0.30
2019-01-18T00:19:32.598Z,0.30
2019-01-18T00:22:01.226Z,0.30
2019-01-18T00:24:29.957Z,0.30
2019-01-18T00:26:58.664Z,0.30
2019-01-18T00:29:29.932Z,0.30
2019-01-18T00:31:58.704Z,0.40
2019-01-18T00:34:27.397Z,0.50
2019-01-18T00:36:56.122Z,0.60
2019-01-18T00:39:27.418Z,0.70
2019-01-18T00:41:58.906Z,0.70
2019-01-18T00:44:27.528Z,0.70
2019-01-18T00:46:56.170Z,0.70
2019-01-18T00:49:26.656Z,0.70
2019-01-18T00:51:55.354Z,0.60
2019-01-18T00:54:24.044Z,0.70
2019-01-18T00:56:53.939Z,0.80
2019-01-18T00:59:22.649Z,0.80
2019-01-18T01:01:53.239Z,0.80
2019-01-18T01:04:22.207Z,0.70
2019-01-18T01:06:51.154Z,0.70
2019-01-18T01:09:20.116Z,0.90
2019-01-18T01:11:49.050Z,0.80
2019-01-18T01:14:19.739Z,0.80
2019-01-18T01:16:48.460Z,0.80
2019-01-18T01:19:17.135Z,0.90
2019-01-18T01:21:49.296Z,0.90
2019-01-18T01:24:18.015Z,0.90
2019-01-18T01:26:48.790Z,0.90
2019-01-18T01:29:17.401Z,1.00
2019-01-18T01:31:46.154Z,1.00
2019-01-18T01:34:14.874Z,0.90
2019-01-18T01:36:43.598Z,0.90
2019-01-18T01:42:00.322Z,0.80
2019-01-18T01:44:29.031Z,0.70
2019-01-18T01:46:59.523Z,0.60
2019-01-18T01:49:28.361Z,0.60
2019-01-18T01:51:57.047Z,0.50
2019-01-18T01:54:26.038Z,0.50
2019-01-18T01:56:54.794Z,0.40
2019-01-18T01:59:25.356Z,0.40
2019-01-18T02:01:54.146Z,0.30
2019-01-18T02:04:25.380Z,0.30
2019-01-18T02:06:54.291Z,0.30
2019-01-18T02:09:22.991Z,0.30
2019-01-18T02:11:51.699Z,0.30
2019-01-18T02:14:21.032Z,0.40
2019-01-18T02:16:49.675Z,0.40
2019-01-18T02:19:20.392Z,0.40
2019-01-18T02:21:49.082Z,0.50
2019-01-18T02:24:18.071Z,0.40
2019-01-18T02:26:46.682Z,0.40
2019-01-18T02:29:15.390Z,0.50
2019-01-18T02:31:44.303Z,0.50
2019-01-18T02:34:12.920Z,0.40
2019-01-18T02:36:41.935Z,0.40
2019-01-18T02:39:10.619Z,0.50
2019-01-18T02:41:39.582Z,0.50
2019-01-18T02:44:08.532Z,0.50
2019-01-18T02:46:37.187Z,0.60
2019-01-18T02:49:05.909Z,0.50
2019-01-18T02:51:34.703Z,0.50
2019-01-18T02:54:03.415Z,0.50
2019-01-18T02:56:32.033Z,0.40
2019-01-18T02:59:01.011Z,0.60
2019-01-18T03:01:29.666Z,0.60
2019-01-18T03:03:58.352Z,0.40
2019-01-18T03:06:27.063Z,0.30
2019-01-18T03:08:55.692Z,0.30
2019-01-18T03:11:24.569Z,0.40
2019-01-18T03:13:53.223Z,0.40
2019-01-18T03:16:21.945Z,0.30
2019-01-18T03:18:50.596Z,0.50
2019-01-18T03:21:19.321Z,0.50
2019-01-18T03:23:48.211Z,0.50
2019-01-18T03:26:16.938Z,0.40
2019-01-18T03:28:45.783Z,0.40
2019-01-18T03:31:14.481Z,0.40
2019-01-18T03:33:43.177Z,0.30
2019-01-18T03:36:11.907Z,0.20
2019-01-18T03:38:40.809Z,0.20
2019-01-18T03:41:09.599Z,0.20
2019-01-18T03:43:38.303Z,0.10
2019-01-18T03:46:07.240Z,0.10
2019-01-18T03:48:35.933Z,0.00
2019-01-18T03:51:04.627Z,0.00
2019-01-18T03:53:33.310Z,-0.20
2019-01-18T03:56:02.032Z,-0.30
2019-01-18T03:58:30.912Z,-0.40
2019-01-18T04:00:59.654Z,-0.40
2019-01-18T04:03:28.546Z,-0.40
2019-01-18T04:05:57.244Z,-0.40
2019-01-18T04:08:25.863Z,-0.40
2019-01-18T04:10:54.510Z,-0.50
2019-01-18T04:13:23.477Z,-0.60
2019-01-18T04:15:52.158Z,-0.60
2019-01-18T04:18:20.774Z,-0.70
2019-01-18T04:20:49.668Z,-0.60
2019-01-18T04:23:18.545Z,-0.70
2019-01-18T04:25:47.560Z,-0.70
2019-01-18T04:28:16.251Z,-0.60
2019-01-18T04:30:44.957Z,-0.60
2019-01-18T04:33:13.606Z,-0.70
2019-01-18T04:35:42.327Z,-0.70
2019-01-18T04:38:11.006Z,-0.70
2019-01-18T04:40:39.972Z,-0.70
2019-01-18T04:43:08.620Z,-0.70
2019-01-18T04:45:37.330Z,-0.80
2019-01-18T04:48:06.940Z,-0.80
2019-01-18T04:50:35.574Z,-0.80
2019-01-18T04:53:04.296Z,-0.90
2019-01-18T04:55:33.243Z,-0.90
2019-01-18T04:58:01.903Z,-1.00
2019-01-18T05:00:30.967Z,-1.00
2019-01-18T05:02:59.683Z,-1.00
2019-01-18T05:05:28.654Z,-1.00
2019-01-18T05:07:57.282Z,-1.00
2019-01-18T05:10:26.931Z,-1.10
2019-01-18T05:12:55.583Z,-1.00
2019-01-18T05:15:25.212Z,-1.10
2019-01-18T05:17:53.996Z,-1.10
2019-01-18T05:20:22.827Z,-1.10
2019-01-18T05:22:51.574Z,-1.20
2019-01-18T05:25:20.289Z,-1.30
2019-01-18T05:27:49.031Z,-1.30
2019-01-18T05:30:19.184Z,-1.40
2019-01-18T05:32:48.043Z,-1.30
2019-01-18T05:35:16.909Z,-1.30
2019-01-18T05:37:45.748Z,-1.30
2019-01-18T05:40:15.048Z,-1.40
2019-01-18T05:42:43.795Z,-1.20
2019-01-18T05:45:13.148Z,-1.20
2019-01-18T05:47:41.943Z,-1.20
2019-01-18T05:50:11.919Z,-1.20
2019-01-18T05:52:40.654Z,-1.20
2019-01-18T05:55:09.424Z,-1.20
2019-01-18T05:57:38.229Z,-1.30
2019-01-18T06:00:09.945Z,-1.30
2019-01-18T06:02:38.678Z,-1.40
2019-01-18T06:05:09.228Z,-1.40
2019-01-18T06:07:37.872Z,-1.40
2019-01-18T06:10:06.865Z,-1.50
2019-01-18T06:12:35.510Z,-1.50
2019-01-18T06:15:05.059Z,-1.50
2019-01-18T06:17:33.749Z,-1.50
2019-01-18T06:20:02.452Z,-1.50
2019-01-18T06:22:31.457Z,-1.50
2019-01-18T06:25:00.254Z,-1.50
2019-01-18T06:27:29.246Z,-1.50
2019-01-18T06:29:57.935Z,-1.50
2019-01-18T06:32:26.588Z,-1.50
2019-01-18T06:34:55.240Z,-1.50
2019-01-18T06:37:23.939Z,-1.50
2019-01-18T06:39:52.606Z,-1.60
2019-01-18T06:42:21.318Z,-1.60
2019-01-18T06:44:50.039Z,-1.50
2019-01-18T06:47:19.010Z,-1.30
2019-01-18T06:49:47.720Z,-1.40
2019-01-18T06:52:16.440Z,-1.40
2019-01-18T06:54:45.075Z,-1.40
2019-01-18T06:57:13.972Z,-1.50
2019-01-18T06:59:42.627Z,-1.50
2019-01-18T07:02:11.373Z,-1.40
2019-01-18T07:04:41.480Z,-1.40
2019-01-18T07:07:10.459Z,-1.30
2019-01-18T07:09:39.177Z,-1.30
2019-01-18T07:12:07.883Z,-1.20
2019-01-18T07:14:36.880Z,-1.20
2019-01-18T07:17:05.835Z,-1.20
2019-01-18T07:19:34.544Z,-1.10
2019-01-18T07:22:03.533Z,-1.10
2019-01-18T07:24:32.258Z,-1.20
2019-01-18T07:27:00.950Z,-1.10
2019-01-18T07:29:29.570Z,-1.10
2019-01-18T07:31:58.218Z,-1.10
2019-01-18T07:34:46.038Z,-1.10
2019-01-18T07:37:14.752Z,-1.00
2019-01-18T07:39:43.395Z,-0.90
2019-01-18T07:42:12.018Z,-1.00
2019-01-18T07:44:40.776Z,-0.90
2019-01-18T07:47:09.463Z,-0.80
2019-01-18T07:49:38.182Z,-0.90
2019-01-18T07:52:06.879Z,-1.00
2019-01-18T07:54:35.601Z,-1.10
2019-01-18T07:57:04.246Z,-1.00
2019-01-18T07:59:33.040Z,-1.10
2019-01-18T08:02:01.816Z,-1.10
2019-01-18T08:04:30.473Z,-1.00
2019-01-18T08:06:59.211Z,-0.90
2019-01-18T08:09:27.942Z,-1.00
2019-01-18T08:11:56.590Z,-1.10
2019-01-18T08:14:25.572Z,-1.00
2019-01-18T08:16:54.265Z,-0.90
2019-01-18T08:19:22.912Z,-0.80
2019-01-18T08:21:51.606Z,-0.70
2019-01-18T08:24:21.472Z,-0.60
2019-01-18T08:26:52.254Z,-0.50
2019-01-18T08:29:20.968Z,-0.30
2019-01-18T08:31:49.610Z,-0.40
2019-01-18T08:34:18.248Z,-0.40
2019-01-18T08:36:46.954Z,-0.30
2019-01-18T08:39:15.680Z,-0.10
2019-01-18T08:41:44.323Z,-0.10
2019-01-18T08:44:12.954Z,-0.20
2019-01-18T08:47:00.771Z,-0.10
2019-01-18T08:49:29.468Z,0.00
2019-01-18T08:51:58.100Z,0.00
2019-01-18T08:54:26.864Z,0.00
2019-01-18T08:56:55.588Z,0.00
2019-01-18T08:59:24.355Z,0.10
2019-01-18T09:01:53.063Z,0.10
2019-01-18T09:04:21.772Z,0.20
2019-01-18T09:06:50.461Z,0.40
2019-01-18T09:09:19.184Z,0.60
2019-01-18T09:11:48.138Z,0.80
2019-01-18T09:14:19.535Z,1.00
2019-01-18T09:16:47.191Z,1.00
2019-01-18T09:19:16.814Z,1.20
2019-01-18T09:21:46.717Z,1.50
2019-01-18T09:24:16.484Z,1.80
2019-01-18T09:26:46.107Z,1.90
2019-01-18T09:29:15.816Z,1.90
2019-01-18T09:31:45.521Z,2.00
2019-01-18T09:34:15.612Z,1.80
2019-01-18T09:36:45.460Z,1.80
2019-01-18T09:39:15.300Z,1.90
2019-01-18T09:41:44.903Z,1.60
2019-01-18T09:44:14.649Z,1.70
2019-01-18T09:46:44.701Z,1.80
2019-01-18T09:49:14.594Z,1.90
2019-01-18T09:51:44.449Z,2.00
2019-01-18T09:54:14.265Z,2.10
2019-01-18T09:56:43.894Z,2.00
2019-01-18T09:59:13.767Z,2.00
2019-01-18T10:01:49.128Z,2.30
2019-01-18T10:04:14.947Z,2.70
2019-01-18T10:06:44.752Z,2.90
2019-01-18T10:09:14.616Z,2.90
2019-01-18T10:11:44.354Z,2.70
2019-01-18T10:14:14.225Z,2.80
2019-01-18T10:16:44.052Z,2.80
2019-01-18T10:19:13.826Z,2.90
2019-01-18T10:21:43.623Z,2.60
2019-01-18T10:24:13.341Z,2.60
2019-01-18T10:26:43.113Z,2.60
2019-01-18T10:29:13.043Z,2.70
2019-01-18T10:31:42.662Z,2.70
2019-01-18T10:34:12.415Z,2.60
2019-01-18T10:36:42.242Z,2.60
2019-01-18T10:39:12.088Z,2.60
2019-01-18T10:41:42.086Z,2.50
2019-01-18T10:44:12.684Z,2.80
2019-01-18T10:46:42.650Z,3.10
2019-01-18T10:49:12.468Z,3.20
2019-01-18T10:51:42.339Z,3.30
2019-01-18T10:54:12.094Z,3.20
2019-01-18T10:56:41.854Z,3.40
2019-01-18T10:59:11.873Z,3.40
2019-01-18T11:01:41.730Z,3.50
2019-01-18T11:04:11.811Z,3.40
2019-01-18T11:07:00.724Z,3.40
2019-01-18T11:09:30.684Z,3.30
2019-01-18T11:12:00.379Z,3.20
2019-01-18T11:14:30.182Z,3.30
2019-01-18T11:16:59.908Z,3.40
2019-01-18T11:19:29.810Z,3.40
2019-01-18T11:21:59.707Z,3.30
2019-01-18T11:24:29.640Z,3.50
2019-01-18T11:26:59.404Z,3.40
2019-01-18T11:29:29.181Z,3.40
2019-01-18T11:31:58.776Z,3.40
2019-01-18T11:34:28.519Z,3.70
2019-01-18T11:36:58.312Z,3.70
2019-01-18T11:39:28.114Z,3.70
2019-01-18T11:41:56.947Z,3.70
2019-01-18T11:44:26.828Z,3.40
2019-01-18T11:46:56.608Z,3.40
2019-01-18T11:49:26.344Z,3.50
2019-01-18T11:51:56.087Z,3.50
2019-01-18T11:54:25.847Z,3.60
2019-01-18T11:56:55.878Z,3.50
2019-01-18T11:59:25.495Z,3.80
2019-01-18T12:01:55.547Z,4.10
2019-01-18T12:04:25.263Z,4.40
2019-01-18T12:06:54.924Z,5.40
2019-01-18T12:09:24.851Z,5.80
2019-01-18T12:11:54.645Z,5.90
2019-01-18T12:14:28.494Z,6.50
2019-01-18T12:16:58.311Z,7.00
2019-01-18T12:19:28.169Z,7.20
2019-01-18T12:21:58.042Z,7.50
2019-01-18T12:24:28.015Z,7.70
2019-01-18T12:26:57.835Z,8.00
2019-01-18T12:29:27.624Z,7.80
2019-01-18T12:31:57.340Z,7.90
2019-01-18T12:34:27.042Z,7.90
2019-01-18T12:36:59.017Z,8.20
2019-01-18T12:39:28.219Z,7.80
2019-01-18T12:41:58.223Z,7.80
2019-01-18T12:44:28.014Z,8.00
2019-01-18T12:46:57.732Z,8.10
2019-01-18T12:49:27.447Z,8.40
2019-01-18T12:51:57.223Z,8.50
2019-01-18T12:54:26.864Z,8.90
2019-01-18T12:56:57.627Z,8.80
2019-01-18T12:59:27.286Z,8.80
2019-01-18T13:01:56.983Z,8.80
2019-01-18T13:04:26.708Z,8.80
2019-01-18T13:06:56.355Z,8.50
2019-01-18T13:09:26.102Z,8.30
2019-01-18T13:11:55.770Z,7.80
2019-01-18T13:14:25.547Z,7.50
2019-01-18T13:16:55.389Z,7.10
2019-01-18T13:19:25.845Z,7.00
2019-01-18T13:21:55.587Z,7.20
2019-01-18T13:24:25.526Z,6.80
2019-01-18T13:27:14.456Z,7.30
2019-01-18T13:29:44.107Z,7.40
2019-01-18T13:32:13.842Z,7.90
2019-01-18T13:34:43.547Z,8.20
2019-01-18T13:37:13.387Z,8.50
2019-01-18T13:39:43.406Z,8.80
2019-01-18T13:42:13.475Z,8.50
2019-01-18T13:44:43.625Z,7.70
2019-01-18T13:47:18.300Z,7.20
2019-01-18T13:49:45.033Z,6.70
2019-01-18T13:52:15.009Z,7.00
2019-01-18T13:55:04.676Z,6.80
2019-01-18T13:57:34.705Z,6.40
2019-01-18T14:00:05.863Z,6.00
2019-01-18T14:02:35.570Z,5.70
2019-01-18T14:05:06.416Z,5.40
2019-01-18T14:07:36.099Z,5.30
2019-01-18T14:10:08.919Z,4.90
2019-01-18T14:12:38.721Z,4.60
2019-01-18T14:15:09.683Z,4.40
2019-01-18T14:17:39.442Z,4.30
2019-01-18T14:20:12.159Z,4.30
2019-01-18T14:22:41.953Z,4.30
2019-01-18T14:25:11.717Z,4.00
2019-01-18T14:28:00.654Z,4.00
2019-01-18T14:30:30.476Z,3.90
2019-01-18T14:33:00.651Z,3.90
2019-01-18T14:35:30.340Z,3.90
2019-01-18T14:38:00.265Z,3.70
2019-01-18T14:40:30.279Z,3.50
2019-01-18T14:43:00.079Z,3.40
2019-01-18T14:45:32.997Z,3.50
2019-01-18T14:48:02.802Z,3.50
2019-01-18T14:50:32.581Z,3.40
2019-01-18T14:53:02.288Z,3.10
2019-01-18T14:55:32.070Z,3.00
2019-01-18T14:58:03.349Z,2.90
2019-01-18T15:00:35.754Z,2.70
2019-01-18T15:03:05.660Z,2.60
2019-01-18T15:05:35.407Z,2.60
2019-01-18T15:08:05.499Z,2.60
2019-01-18T15:10:35.306Z,2.50
2019-01-18T15:13:16.997Z,2.50
2019-01-18T15:15:46.860Z,2.50
2019-01-18T15:18:17.598Z,2.40
2019-01-18T15:20:47.465Z,2.40
2019-01-18T15:23:17.318Z,2.30
2019-01-18T15:25:47.025Z,2.20
2019-01-18T15:28:16.741Z,2.10
2019-01-18T15:30:46.474Z,2.00
2019-01-18T15:33:16.282Z,2.00
2019-01-18T15:35:45.971Z,2.10
2019-01-18T15:38:15.754Z,2.10
2019-01-18T15:40:47.732Z,2.10
2019-01-18T15:43:20.052Z,2.10
2019-01-18T15:45:49.853Z,2.00
2019-01-18T15:48:19.677Z,2.00
2019-01-18T15:50:49.444Z,1.90
2019-01-18T15:53:19.244Z,1.90
2019-01-18T15:55:49.043Z,1.80
2019-01-18T15:58:18.784Z,1.60
2019-01-18T16:00:48.535Z,1.60
2019-01-18T16:03:18.508Z,1.50
2019-01-18T16:05:48.407Z,1.30
2019-01-18T16:08:18.253Z,1.20
2019-01-18T16:10:48.307Z,1.10
2019-01-18T16:13:18.138Z,1.10
2019-01-18T16:15:54.580Z,1.10
2019-01-18T16:18:24.423Z,1.10
2019-01-18T16:20:54.667Z,1.00
2019-01-18T16:23:24.484Z,1.00
2019-01-18T16:25:54.448Z,1.00
2019-01-18T16:28:24.200Z,1.00
2019-01-18T16:30:54.019Z,0.90
2019-01-18T16:33:23.896Z,0.80
2019-01-18T16:35:53.717Z,0.70
2019-01-18T16:38:23.555Z,0.70
2019-01-18T16:40:53.299Z,0.80
2019-01-18T16:43:47.107Z,0.90
2019-01-18T16:46:16.807Z,0.80
2019-01-18T16:48:46.456Z,0.90
2019-01-18T16:51:16.212Z,0.80
2019-01-18T16:53:46.192Z,0.80
2019-01-18T16:56:15.868Z,0.80
2019-01-18T16:58:45.684Z,0.70
2019-01-18T17:01:15.460Z,0.60
2019-01-18T17:03:45.141Z,0.60
2019-01-18T17:06:14.912Z,0.50
2019-01-18T17:08:44.837Z,0.40
2019-01-18T17:11:14.723Z,0.40
2019-01-18T17:13:44.761Z,0.40
2019-01-18T17:16:14.551Z,0.30
2019-01-18T17:18:44.504Z,0.30
2019-01-18T17:21:14.307Z,0.30
2019-01-18T17:23:44.429Z,0.20
2019-01-18T17:26:14.189Z,0.30
2019-01-18T17:28:43.941Z,0.20
2019-01-18T17:31:13.697Z,0.20
2019-01-18T17:33:43.466Z,0.20
2019-01-18T17:36:38.713Z,0.00
2019-01-18T17:39:34.075Z,0.00
2019-01-18T17:42:51.082Z,0.00
2019-01-18T17:45:47.845Z,0.00
2019-01-18T17:49:03.329Z,0.00
2019-01-18T17:52:09.784Z,0.00
2019-01-18T17:54:52.931Z,0.00
2019-01-18T17:58:04.547Z,-0.10
2019-01-18T18:01:01.187Z,-0.10
2019-01-18T18:04:00.290Z,-0.30
2019-01-18T18:06:49.355Z,-0.40
2019-01-18T18:09:25.860Z,-0.50
2019-01-18T18:12:26.808Z,-0.60
2019-01-18T18:15:35.172Z,-0.60
2019-01-18T18:18:42.246Z,-0.60
2019-01-18T18:21:43.029Z,-0.70
2019-01-18T18:24:37.281Z,-0.80
2019-01-18T18:27:46.845Z,-0.60
2019-01-18T18:30:21.617Z,-0.50
2019-01-18T18:33:50.310Z,-0.50
2019-01-18T18:36:47.403Z,-0.60
2019-01-18T18:40:07.988Z,-0.60
2019-01-18T18:43:06.535Z,-0.60
2019-01-18T18:46:25.833Z,-0.60
2019-01-18T18:49:11.867Z,-0.70
2019-01-18T18:52:18.498Z,-0.70
2019-01-18T18:55:07.259Z,-0.80
2019-01-18T18:57:56.312Z,-0.70
2019-01-18T19:00:57.628Z,-0.70
2019-01-18T19:03:57.232Z,-0.70
2019-01-18T19:06:59.179Z,-0.70
2019-01-18T19:09:46.000Z,-0.70
2019-01-18T19:12:33.923Z,-0.70
2019-01-18T19:15:12.903Z,-0.80
2019-01-18T19:17:55.628Z,-0.80
2019-01-18T19:20:36.601Z,-0.80
2019-01-18T19:23:47.594Z,-0.80
2019-01-18T19:26:49.954Z,-0.80
2019-01-18T19:30:00.259Z,-0.80
2019-01-18T19:32:54.388Z,-0.80
2019-01-18T19:36:07.542Z,-0.80
2019-01-18T19:39:19.131Z,-0.90
2019-01-18T19:42:41.180Z,-0.80
2019-01-18T19:45:44.705Z,-0.90
2019-01-18T19:48:47.068Z,-1.00
2019-01-18T19:51:56.832Z,-1.00
2019-01-18T19:54:46.155Z,-0.90
2019-01-18T19:58:09.714Z,-0.90
2019-01-18T20:01:11.503Z,-1.00
2019-01-18T20:04:20.703Z,-1.10
2019-01-18T20:07:49.577Z,-1.10
2019-01-18T20:11:02.659Z,-1.00
2019-01-18T20:14:15.557Z,-1.10
2019-01-18T20:17:04.439Z,-1.00
2019-01-18T20:20:11.406Z,-1.10
2019-01-18T20:23:31.428Z,-1.10
2019-01-18T20:26:19.375Z,-1.10
2019-01-18T20:29:29.588Z,-1.20
2019-01-18T20:32:06.326Z,-1.20
2019-01-18T20:35:04.570Z,-1.20
2019-01-18T20:38:21.053Z,-1.20
2019-01-18T20:41:39.671Z,-1.10
2019-01-18T20:44:45.492Z,-1.10
2019-01-18T20:47:38.088Z,-1.10
2019-01-18T20:51:02.300Z,-1.10
2019-01-18T20:54:01.489Z,-1.20
2019-01-18T20:57:06.183Z,-1.20
2019-01-18T20:59:41.374Z,-1.20
2019-01-18T21:02:16.563Z,-1.30
2019-01-18T21:05:06.488Z,-1.30
2019-01-18T21:07:54.673Z,-1.30
2019-01-18T21:13:39.384Z,-1.30
2019-01-18T21:16:26.572Z,-1.30
2019-01-18T21:19:06.045Z,-1.30
2019-01-18T21:22:06.351Z,-1.40
2019-01-18T21:24:45.384Z,-1.30
2019-01-18T21:27:23.970Z,-1.30
2019-01-18T21:30:14.300Z,-1.30
2019-01-18T21:33:05.262Z,-1.20
2019-01-18T21:35:59.575Z,-1.30
2019-01-18T21:38:43.070Z,-1.40
2019-01-18T21:41:12.826Z,-1.30
2019-01-18T21:43:59.766Z,-1.30
2019-01-18T21:46:48.396Z,-1.40
2019-01-18T21:49:22.788Z,-1.40
2019-01-18T21:52:08.596Z,-1.40
2019-01-18T21:55:05.397Z,-1.40
2019-01-18T21:57:53.370Z,-1.40
2019-01-18T22:00:38.452Z,-1.50
2019-01-18T22:03:21.060Z,-1.50
2019-01-18T22:06:02.044Z,-1.60
2019-01-18T22:08:50.204Z,-1.60
2019-01-18T22:12:02.691Z,-1.60
2019-01-18T22:15:08.192Z,-1.50
2019-01-18T22:17:50.691Z,-1.60
2019-01-18T22:21:13.574Z,-1.60
2019-01-18T22:24:19.958Z,-1.60
2019-01-18T22:27:01.396Z,-1.70
2019-01-18T22:29:48.034Z,-1.70
2019-01-18T22:32:35.852Z,-1.70
2019-01-18T22:35:25.269Z,-1.80
2019-01-18T22:38:15.852Z,-1.90
2019-01-18T22:40:56.146Z,-1.80
2019-01-18T22:43:37.843Z,-1.80
2019-01-18T22:46:22.706Z,-1.80
2019-01-18T22:49:13.637Z,-1.80
2019-01-18T22:52:01.485Z,-1.90
2019-01-18T22:54:43.967Z,-1.80
2019-01-18T22:57:17.663Z,-1.80
2019-01-18T22:59:53.672Z,-1.90
2019-01-18T23:02:36.640Z,-1.90
2019-01-18T23:05:24.431Z,-2.00
2019-01-18T23:08:11.161Z,-2.00
2019-01-18T23:10:46.697Z,-2.00
2019-01-18T23:13:25.311Z,-2.00
2019-01-18T23:16:13.143Z,-2.00
2019-01-18T23:19:04.075Z,-2.00
2019-01-18T23:21:56.413Z,-2.00
2019-01-18T23:24:28.951Z,-2.10
2019-01-18T23:27:24.171Z,-2.10
2019-01-18T23:30:20.365Z,-2.10
2019-01-18T23:33:11.101Z,-2.20
2019-01-18T23:35:58.946Z,-2.20
2019-01-18T23:39:04.824Z,-2.20
2019-01-18T23:41:53.167Z,-2.10
2019-01-18T23:44:39.916Z,-2.10
2019-01-18T23:47:30.331Z,-2.10
2019-01-18T23:50:27.347Z,-2.10
2019-01-18T23:53:18.279Z,-2.00
2019-01-18T23:55:53.513Z,-1.90
2019-01-18T23:58:38.811Z,-2.00
